createdAt,value
2024-02-27T00:01:36.078Z,13.27
2024-02-27T00:04:03.934Z,12.03
2024-02-27T00:06:31.858Z,23.40
2024-02-27T00:09:01.876Z,17.93
2024-02-27T00:11:30.225Z,10.57
2024-02-27T00:13:58.617Z,12.50
2024-02-27T00:16:26.468Z,12.73
2024-02-27T00:18:54.683Z,9.40
2024-02-27T00:21:22.482Z,15.20
2024-02-27T00:23:50.792Z,12.33
2024-02-27T00:26:19.840Z,13.60
2024-02-27T00:28:48.120Z,13.13
2024-02-27T00:31:16.346Z,12.83
2024-02-27T00:33:44.308Z,16.13
2024-02-27T00:36:12.058Z,17.43
2024-02-27T00:38:40.596Z,12.40
2024-02-27T00:41:08.811Z,12.87
2024-02-27T00:43:38.351Z,12.87
2024-02-27T00:46:08.911Z,11.87
2024-02-27T00:48:36.714Z,13.60
2024-02-27T00:51:04.968Z,16.63
2024-02-27T00:53:32.916Z,11.90
2024-02-27T00:56:00.659Z,12.30
2024-02-27T00:58:28.341Z,12.40
2024-02-27T01:00:57.979Z,14.87
2024-02-27T01:03:26.168Z,11.07
2024-02-27T01:05:54.078Z,14.20
2024-02-27T01:08:22.514Z,10.93
2024-02-27T01:10:50.260Z,15.93
2024-02-27T01:13:18.426Z,18.90
2024-02-27T01:15:46.596Z,12.20
2024-02-27T01:18:15.930Z,15.63
2024-02-27T01:20:43.928Z,11.37
2024-02-27T01:23:11.602Z,10.87
2024-02-27T01:25:39.461Z,12.87
2024-02-27T01:28:07.910Z,12.23
2024-02-27T01:30:36.390Z,13.27
2024-02-27T01:33:04.450Z,14.47
2024-02-27T01:35:33.826Z,13.27
2024-02-27T01:38:02.235Z,12.80
2024-02-27T01:40:30.114Z,12.80
2024-02-27T01:42:58.035Z,11.97
2024-02-27T01:45:26.928Z,13.13
2024-02-27T01:47:55.684Z,11.50
2024-02-27T01:50:24.561Z,9.30
2024-02-27T01:52:54.624Z,10.47
2024-02-27T01:55:22.759Z,21.30
2024-02-27T01:57:52.396Z,12.67
2024-02-27T02:00:22.139Z,10.40
2024-02-27T02:02:50.904Z,11.23
2024-02-27T02:05:18.768Z,10.23
2024-02-27T02:07:48.475Z,13.20
2024-02-27T02:10:17.718Z,11.03
2024-02-27T02:12:45.937Z,11.63
2024-02-27T02:15:14.027Z,10.20
2024-02-27T02:17:43.544Z,10.20
2024-02-27T02:20:11.430Z,8.90
2024-02-27T02:22:42.424Z,13.07
2024-02-27T02:25:12.687Z,9.53
2024-02-27T02:27:41.075Z,9.70
2024-02-27T02:30:12.353Z,10.00
2024-02-27T02:32:47.371Z,8.93
2024-02-27T02:35:15.426Z,9.10
2024-02-27T02:37:48.765Z,10.80
2024-02-27T02:40:17.152Z,9.50
2024-02-27T02:42:45.599Z,9.93
2024-02-27T02:45:14.303Z,8.53
2024-02-27T02:47:42.858Z,9.40
2024-02-27T02:50:11.271Z,8.70
2024-02-27T02:52:39.002Z,11.60
2024-02-27T02:55:09.327Z,8.60
2024-02-27T02:57:37.154Z,8.27
2024-02-27T03:00:06.198Z,10.20
2024-02-27T03:02:34.630Z,8.60
2024-02-27T03:05:02.584Z,9.73
2024-02-27T03:07:31.069Z,7.70
2024-02-27T03:09:58.994Z,8.30
2024-02-27T03:12:28.129Z,8.40
2024-02-27T03:14:56.216Z,8.00
2024-02-27T03:17:24.390Z,8.23
2024-02-27T03:19:52.145Z,8.37
2024-02-27T03:22:20.268Z,8.40
2024-02-27T03:24:49.495Z,11.10
2024-02-27T03:27:17.816Z,9.53
2024-02-27T03:29:46.840Z,8.57
2024-02-27T03:32:14.900Z,9.67
2024-02-27T03:34:42.721Z,9.00
2024-02-27T03:37:10.892Z,12.20
2024-02-27T03:39:38.880Z,8.63
2024-02-27T03:42:06.772Z,9.83
2024-02-27T03:44:36.564Z,10.23
2024-02-27T03:47:06.403Z,9.10
2024-02-27T03:49:34.268Z,8.30
2024-02-27T03:52:01.947Z,9.90
2024-02-27T03:54:29.989Z,11.83
2024-02-27T03:56:57.735Z,10.63
2024-02-27T03:59:25.635Z,10.10
2024-02-27T04:01:53.821Z,8.90
2024-02-27T04:04:22.992Z,9.37
2024-02-27T04:06:51.216Z,8.33
2024-02-27T04:09:19.251Z,10.33
2024-02-27T04:11:47.034Z,8.43
2024-02-27T04:14:14.801Z,10.97
2024-02-27T04:16:42.766Z,8.10
2024-02-27T04:19:10.598Z,8.90
2024-02-27T04:21:40.808Z,9.37
2024-02-27T04:24:09.275Z,10.40
2024-02-27T04:26:36.903Z,9.13
2024-02-27T04:29:05.016Z,10.53
2024-02-27T04:31:32.864Z,11.70
2024-02-27T04:34:00.907Z,10.57
2024-02-27T04:36:28.969Z,10.13
2024-02-27T04:38:58.965Z,10.33
2024-02-27T04:41:26.949Z,11.17
2024-02-27T04:43:54.977Z,10.50
2024-02-27T04:46:23.413Z,9.07
2024-02-27T04:48:51.133Z,10.03
2024-02-27T04:51:19.109Z,10.70
2024-02-27T04:53:46.954Z,9.63
2024-02-27T04:56:16.138Z,10.23
2024-02-27T04:58:43.994Z,10.70
2024-02-27T05:01:15.061Z,9.80
2024-02-27T05:03:42.983Z,10.47
2024-02-27T05:06:10.900Z,9.67
2024-02-27T05:08:39.018Z,9.60
2024-02-27T05:11:07.054Z,10.03
2024-02-27T05:13:36.307Z,10.43
2024-02-27T05:16:07.839Z,9.90
2024-02-27T05:18:35.765Z,9.43
2024-02-27T05:21:04.994Z,10.87
2024-02-27T05:23:32.917Z,10.30
2024-02-27T05:26:00.805Z,10.47
2024-02-27T05:28:28.850Z,10.00
2024-02-27T05:30:58.023Z,10.33
2024-02-27T05:33:26.065Z,10.83
2024-02-27T05:35:54.124Z,11.20
2024-02-27T05:38:22.209Z,10.10
2024-02-27T05:40:49.847Z,10.13
2024-02-27T05:43:18.045Z,12.80
2024-02-27T05:45:46.214Z,10.87
2024-02-27T05:48:15.546Z,11.97
2024-02-27T05:50:43.850Z,11.20
2024-02-27T05:53:11.722Z,11.60
2024-02-27T05:55:39.407Z,10.90
2024-02-27T05:58:07.450Z,13.43
2024-02-27T06:00:35.434Z,12.27
2024-02-27T06:03:03.467Z,12.23
2024-02-27T06:05:32.574Z,13.93
2024-02-27T06:08:01.119Z,11.93
2024-02-27T06:10:28.914Z,12.97
2024-02-27T06:12:56.828Z,13.33
2024-02-27T06:15:24.717Z,13.73
2024-02-27T06:17:54.537Z,13.60
2024-02-27T06:20:41.552Z,13.70
2024-02-27T06:23:11.217Z,13.80
2024-02-27T06:25:42.745Z,14.10
2024-02-27T06:28:10.720Z,15.40
2024-02-27T06:30:38.657Z,13.27
2024-02-27T06:33:08.831Z,15.03
2024-02-27T06:35:36.659Z,15.90
2024-02-27T06:38:05.475Z,15.83
2024-02-27T06:40:35.368Z,16.03
2024-02-27T06:43:04.188Z,16.60
2024-02-27T06:45:33.670Z,16.30
2024-02-27T06:48:02.262Z,16.97
2024-02-27T06:50:31.281Z,16.83
2024-02-27T06:53:00.609Z,17.73
2024-02-27T06:55:29.041Z,17.47
2024-02-27T06:57:58.297Z,19.07
2024-02-27T07:00:26.470Z,18.67
2024-02-27T07:02:54.658Z,18.50
2024-02-27T07:05:27.512Z,18.77
2024-02-27T07:08:00.325Z,20.07
2024-02-27T07:10:28.039Z,19.93
2024-02-27T07:12:56.177Z,19.73
2024-02-27T07:15:25.920Z,20.00
2024-02-27T07:17:53.997Z,19.70
2024-02-27T07:20:22.098Z,19.80
2024-02-27T07:22:50.606Z,20.37
2024-02-27T07:25:18.282Z,20.07
2024-02-27T07:27:50.259Z,20.30
2024-02-27T07:30:19.344Z,19.90
2024-02-27T07:32:48.434Z,19.40
2024-02-27T07:35:16.943Z,18.73
2024-02-27T07:37:45.122Z,19.53
2024-02-27T07:40:13.804Z,19.57
2024-02-27T07:42:41.570Z,19.80
2024-02-27T07:45:10.173Z,21.00
2024-02-27T07:47:37.906Z,20.10
2024-02-27T07:50:08.843Z,20.33
2024-02-27T07:52:37.593Z,18.63
2024-02-27T07:55:05.690Z,19.47
2024-02-27T07:57:33.678Z,20.60
2024-02-27T08:00:02.017Z,21.40
2024-02-27T08:02:30.063Z,20.30
2024-02-27T08:04:57.713Z,20.97
2024-02-27T08:07:27.143Z,20.70
2024-02-27T08:09:54.906Z,21.10
2024-02-27T08:12:22.847Z,20.73
2024-02-27T08:14:50.972Z,20.07
2024-02-27T08:17:19.292Z,19.00
2024-02-27T08:19:47.394Z,19.40
2024-02-27T08:22:15.304Z,19.47
2024-02-27T08:24:44.492Z,17.73
2024-02-27T08:27:12.390Z,18.97
2024-02-27T08:29:40.531Z,18.80
2024-02-27T08:32:08.348Z,19.90
2024-02-27T08:34:36.269Z,20.10
2024-02-27T08:37:04.151Z,19.53
2024-02-27T08:39:33.543Z,19.47
2024-02-27T08:42:04.190Z,20.40
2024-02-27T08:44:32.106Z,19.43
2024-02-27T08:47:02.947Z,20.87
2024-02-27T08:49:30.948Z,22.03
2024-02-27T08:51:58.968Z,20.43
2024-02-27T08:54:26.884Z,21.50
2024-02-27T08:56:55.803Z,22.33
2024-02-27T08:59:24.917Z,21.90
2024-02-27T09:01:53.286Z,23.40
2024-02-27T09:04:21.531Z,22.80
2024-02-27T09:06:49.521Z,21.33
2024-02-27T09:09:17.496Z,22.90
2024-02-27T09:11:47.530Z,20.60
2024-02-27T09:14:15.554Z,22.60
2024-02-27T09:16:44.611Z,22.47
2024-02-27T09:19:14.887Z,21.97
2024-02-27T09:21:43.480Z,20.10
2024-02-27T09:24:11.327Z,21.27
2024-02-27T09:26:39.539Z,21.83
2024-02-27T09:29:07.248Z,22.07
2024-02-27T09:31:35.383Z,21.30
2024-02-27T09:34:04.699Z,22.50
2024-02-27T09:36:32.550Z,22.70
2024-02-27T09:39:00.353Z,21.30
2024-02-27T09:41:31.239Z,21.70
2024-02-27T09:43:58.950Z,20.10
2024-02-27T09:46:27.965Z,20.43
2024-02-27T09:48:57.929Z,19.80
2024-02-27T09:51:28.789Z,22.03
2024-02-27T09:54:01.199Z,22.63
2024-02-27T09:56:29.388Z,22.77
2024-02-27T09:58:57.060Z,21.97
2024-02-27T10:01:26.365Z,20.77
2024-02-27T10:03:54.408Z,20.87
2024-02-27T10:06:24.369Z,19.07
2024-02-27T10:08:55.336Z,19.27
2024-02-27T10:11:23.825Z,19.40
2024-02-27T10:13:51.952Z,19.77
2024-02-27T10:16:21.803Z,18.70
2024-02-27T10:18:50.109Z,18.60
2024-02-27T10:21:19.485Z,19.90
2024-02-27T10:23:47.815Z,19.80
2024-02-27T10:26:17.195Z,20.40
2024-02-27T10:28:45.082Z,19.53
2024-02-27T10:31:15.474Z,19.40
2024-02-27T10:33:44.694Z,19.10
2024-02-27T10:36:13.352Z,18.87
2024-02-27T10:38:41.322Z,20.40
2024-02-27T10:41:10.039Z,18.73
2024-02-27T10:43:39.629Z,20.00
2024-02-27T10:46:08.230Z,19.53
2024-02-27T10:48:42.000Z,18.73
2024-02-27T10:51:14.561Z,19.67
2024-02-27T10:53:43.361Z,20.83
2024-02-27T10:56:11.384Z,19.10
2024-02-27T10:58:41.832Z,19.53
2024-02-27T11:01:11.641Z,19.83
2024-02-27T11:03:42.109Z,20.30
2024-02-27T11:06:13.148Z,19.90
2024-02-27T11:08:41.902Z,19.30
2024-02-27T11:11:10.105Z,19.60
2024-02-27T11:13:39.946Z,18.43
2024-02-27T11:16:12.533Z,20.33
2024-02-27T11:18:42.232Z,18.77
2024-02-27T11:21:10.915Z,20.90
2024-02-27T11:23:39.968Z,18.20
2024-02-27T11:26:08.353Z,24.60
2024-02-27T11:28:36.678Z,18.20
2024-02-27T11:31:04.813Z,19.40
2024-02-27T11:33:44.395Z,19.37
2024-02-27T11:36:12.706Z,18.10
2024-02-27T11:38:43.688Z,18.30
2024-02-27T11:41:14.330Z,19.07
2024-02-27T11:43:42.135Z,17.43
2024-02-27T11:46:27.866Z,16.03
2024-02-27T11:48:57.886Z,16.57
2024-02-27T11:51:26.107Z,17.27
2024-02-27T11:53:54.407Z,15.93
2024-02-27T11:56:23.662Z,15.27
2024-02-27T11:58:53.177Z,15.73
2024-02-27T12:01:23.410Z,14.90
2024-02-27T12:03:51.598Z,13.63
2024-02-27T12:06:20.881Z,13.90
2024-02-27T12:08:49.439Z,12.53
2024-02-27T12:11:18.576Z,12.80
2024-02-27T12:13:46.811Z,12.90
2024-02-27T12:16:23.146Z,12.43
2024-02-27T12:18:51.472Z,11.43
2024-02-27T12:21:29.776Z,14.43
2024-02-27T12:24:10.756Z,13.50
2024-02-27T12:26:39.296Z,12.90
2024-02-27T12:29:07.264Z,16.17
2024-02-27T12:31:35.249Z,14.20
2024-02-27T12:34:04.064Z,15.37
2024-02-27T12:36:33.823Z,13.90
2024-02-27T12:39:01.950Z,13.80
2024-02-27T12:41:30.259Z,12.67
2024-02-27T12:43:59.539Z,12.23
2024-02-27T12:46:28.712Z,12.43
2024-02-27T12:48:59.004Z,12.33
2024-02-27T12:51:28.529Z,11.50
2024-02-27T12:53:58.446Z,13.37
2024-02-27T12:56:26.385Z,14.60
2024-02-27T12:58:56.083Z,10.80
2024-02-27T13:01:24.390Z,11.83
2024-02-27T13:03:52.598Z,13.10
2024-02-27T13:06:23.498Z,10.60
2024-02-27T13:08:52.048Z,10.80
2024-02-27T13:11:21.482Z,11.43
2024-02-27T13:13:49.770Z,10.67
2024-02-27T13:16:19.193Z,13.37
2024-02-27T13:18:49.068Z,14.20
2024-02-27T13:21:20.053Z,14.17
2024-02-27T13:23:51.409Z,11.60
2024-02-27T13:26:21.088Z,11.37
2024-02-27T13:28:50.875Z,14.13
2024-02-27T13:31:18.597Z,14.57
2024-02-27T13:33:46.928Z,11.97
2024-02-27T13:36:16.041Z,11.13
2024-02-27T13:38:43.981Z,10.97
2024-02-27T13:41:12.156Z,10.53
2024-02-27T13:43:41.915Z,11.60
2024-02-27T13:46:11.263Z,10.40
2024-02-27T13:48:39.682Z,10.60
2024-02-27T13:51:07.523Z,11.47
2024-02-27T13:53:35.682Z,12.57
2024-02-27T13:56:03.691Z,12.50
2024-02-27T13:58:31.470Z,13.30
2024-02-27T14:01:04.070Z,14.27
2024-02-27T14:03:33.739Z,13.20
2024-02-27T14:06:02.017Z,13.87
2024-02-27T14:08:30.625Z,13.37
2024-02-27T14:11:00.302Z,14.30
2024-02-27T14:13:28.777Z,13.37
2024-02-27T14:15:56.861Z,13.80
2024-02-27T14:18:27.480Z,14.37
2024-02-27T14:20:55.595Z,14.27
2024-02-27T14:23:23.592Z,14.03
2024-02-27T14:25:51.512Z,15.10
2024-02-27T14:28:19.548Z,16.90
2024-02-27T14:30:47.669Z,15.30
2024-02-27T14:33:16.370Z,14.20
2024-02-27T14:35:45.952Z,14.90
2024-02-27T14:38:15.488Z,16.10
2024-02-27T14:40:44.082Z,15.77
2024-02-27T14:43:13.876Z,17.33
2024-02-27T14:45:43.117Z,17.70
2024-02-27T14:48:11.977Z,15.27
2024-02-27T14:50:40.150Z,14.90
2024-02-27T14:53:09.892Z,15.93
2024-02-27T14:55:39.129Z,16.20
2024-02-27T14:58:08.586Z,15.37
2024-02-27T15:00:36.575Z,14.97
2024-02-27T15:03:04.831Z,15.13
2024-02-27T15:05:33.771Z,17.13
2024-02-27T15:08:01.766Z,15.53
2024-02-27T15:10:30.763Z,15.80
2024-02-27T15:13:00.393Z,15.70
2024-02-27T15:15:30.917Z,16.27
2024-02-27T15:17:58.758Z,17.70
2024-02-27T15:20:29.859Z,18.60
2024-02-27T15:22:58.335Z,16.67
2024-02-27T15:25:26.122Z,17.50
2024-02-27T15:27:55.666Z,15.27
2024-02-27T15:30:26.328Z,16.60
2024-02-27T15:32:55.463Z,16.17
2024-02-27T15:35:24.260Z,15.67
2024-02-27T15:37:52.483Z,15.50
2024-02-27T15:40:20.168Z,17.33
2024-02-27T15:42:48.280Z,17.47
2024-02-27T15:45:17.968Z,16.30
2024-02-27T15:47:47.297Z,17.50
2024-02-27T15:50:15.301Z,16.50
2024-02-27T15:52:43.401Z,16.13
2024-02-27T15:55:11.230Z,13.90
2024-02-27T15:57:39.210Z,15.37
2024-02-27T16:00:09.759Z,14.87
2024-02-27T16:02:39.044Z,16.80
2024-02-27T16:05:10.941Z,15.73
2024-02-27T16:07:41.494Z,15.57
2024-02-27T16:10:10.553Z,15.70
2024-02-27T16:12:39.934Z,18.93
2024-02-27T16:15:09.415Z,20.13
2024-02-27T16:17:37.366Z,18.87
2024-02-27T16:20:08.707Z,19.63
2024-02-27T16:22:37.937Z,16.20
2024-02-27T16:25:06.015Z,16.07
2024-02-27T16:27:34.316Z,16.50
2024-02-27T16:30:04.109Z,16.90
2024-02-27T16:32:33.164Z,17.67
2024-02-27T16:35:01.010Z,16.77
2024-02-27T16:37:30.903Z,16.00
2024-02-27T16:39:58.686Z,18.57
2024-02-27T16:42:27.256Z,18.67
2024-02-27T16:44:56.408Z,17.37
2024-02-27T16:47:26.214Z,17.10
2024-02-27T16:49:54.475Z,16.73
2024-02-27T16:52:23.500Z,18.80
2024-02-27T16:54:53.192Z,18.43
2024-02-27T16:57:21.229Z,18.63
2024-02-27T16:59:49.113Z,19.80
2024-02-27T17:02:18.915Z,18.57
2024-02-27T17:04:47.503Z,19.10
2024-02-27T17:07:20.883Z,21.17
2024-02-27T17:09:48.944Z,19.20
2024-02-27T17:12:18.170Z,18.43
2024-02-27T17:14:46.536Z,19.93
2024-02-27T17:17:15.135Z,21.03
2024-02-27T17:19:43.090Z,19.57
2024-02-27T17:22:11.146Z,19.60
2024-02-27T17:24:38.984Z,18.70
2024-02-27T17:27:06.902Z,19.57
2024-02-27T17:29:36.812Z,33.70
2024-02-27T17:32:04.772Z,20.67
2024-02-27T17:34:32.802Z,19.30
2024-02-27T17:37:01.657Z,20.13
2024-02-27T17:39:29.450Z,21.57
2024-02-27T17:41:57.135Z,21.00
2024-02-27T17:44:25.243Z,20.00
2024-02-27T17:46:54.954Z,20.70
2024-02-27T17:49:24.048Z,21.20
2024-02-27T17:51:52.272Z,22.03
2024-02-27T17:54:20.077Z,20.20
2024-02-27T17:56:49.909Z,21.77
2024-02-27T17:59:19.243Z,20.50
2024-02-27T18:01:47.789Z,21.30
2024-02-27T18:04:17.176Z,21.57
2024-02-27T18:06:45.499Z,22.27
2024-02-27T18:09:15.288Z,23.00
2024-02-27T18:11:43.290Z,24.40
2024-02-27T18:14:11.688Z,28.20
2024-02-27T18:16:39.444Z,22.70
2024-02-27T18:19:07.649Z,21.63
2024-02-27T18:21:42.785Z,27.23
2024-02-27T18:24:12.286Z,21.77
2024-02-27T18:26:40.650Z,21.00
2024-02-27T18:29:08.677Z,27.63
2024-02-27T18:31:39.296Z,24.07
2024-02-27T18:34:07.330Z,32.00
2024-02-27T18:36:35.498Z,24.00
2024-02-27T18:39:07.793Z,21.20
2024-02-27T18:41:35.753Z,24.40
2024-02-27T18:44:03.968Z,22.80
2024-02-27T18:46:31.801Z,26.60
2024-02-27T18:49:01.647Z,20.13
2024-02-27T18:51:29.703Z,23.97
2024-02-27T18:53:58.148Z,28.70
2024-02-27T18:56:28.391Z,21.90
2024-02-27T18:58:56.504Z,22.77
2024-02-27T19:01:50.382Z,23.07
2024-02-27T19:04:28.164Z,25.73
2024-02-27T19:06:59.449Z,23.93
2024-02-27T19:09:29.234Z,27.43
2024-02-27T19:11:59.934Z,36.20
2024-02-27T19:14:27.982Z,26.40
2024-02-27T19:16:56.569Z,24.37
2024-02-27T19:19:25.234Z,23.30
2024-02-27T19:21:53.239Z,29.43
2024-02-27T19:24:21.063Z,22.20
2024-02-27T19:26:49.819Z,22.30
2024-02-27T19:29:20.351Z,28.47
2024-02-27T19:31:48.253Z,20.87
2024-02-27T19:34:16.087Z,24.33
2024-02-27T19:36:44.314Z,25.03
2024-02-27T19:39:12.966Z,22.23
2024-02-27T19:41:40.783Z,41.40
2024-02-27T19:44:08.525Z,30.23
2024-02-27T19:46:38.876Z,24.80
2024-02-27T19:49:06.709Z,26.40
2024-02-27T19:51:34.626Z,22.60
2024-02-27T19:54:03.822Z,24.00
2024-02-27T19:56:32.301Z,25.90
2024-02-27T19:59:00.783Z,23.67
2024-02-27T20:01:29.356Z,25.73
2024-02-27T20:03:58.778Z,29.27
2024-02-27T20:06:27.550Z,24.90
2024-02-27T20:08:57.228Z,29.37
2024-02-27T20:11:25.537Z,26.53
2024-02-27T20:13:53.371Z,39.50
2024-02-27T20:16:24.035Z,28.43
2024-02-27T20:18:54.232Z,31.03
2024-02-27T20:21:24.161Z,39.10
2024-02-27T20:23:52.083Z,30.83
2024-02-27T20:26:19.899Z,36.90
2024-02-27T20:28:57.742Z,28.07
2024-02-27T20:31:25.571Z,32.73
2024-02-27T20:33:55.043Z,29.97
2024-02-27T20:36:24.493Z,28.20
2024-02-27T20:38:52.175Z,27.77
2024-02-27T20:41:20.258Z,41.10
2024-02-27T20:43:48.970Z,24.43
2024-02-27T20:46:15.667Z,27.60
2024-02-27T20:48:43.895Z,23.77
2024-02-27T20:51:12.052Z,26.97
2024-02-27T20:53:41.622Z,32.50
2024-02-27T20:56:09.823Z,26.83
2024-02-27T20:58:37.770Z,28.50
2024-02-27T21:01:05.679Z,34.27
2024-02-27T21:03:33.567Z,23.97
2024-02-27T21:06:01.616Z,26.90
2024-02-27T21:08:30.289Z,24.37
2024-02-27T21:11:00.372Z,28.00
2024-02-27T21:13:28.610Z,30.40
2024-02-27T21:15:58.686Z,25.07
2024-02-27T21:18:27.391Z,25.10
2024-02-27T21:20:55.376Z,27.47
2024-02-27T21:23:23.470Z,31.33
2024-02-27T21:25:51.228Z,31.50
2024-02-27T21:28:20.706Z,26.27
2024-02-27T21:30:48.483Z,31.17
2024-02-27T21:33:18.469Z,25.93
2024-02-27T21:35:46.819Z,26.83
2024-02-27T21:38:14.582Z,29.27
2024-02-27T21:40:42.566Z,25.50
2024-02-27T21:43:10.590Z,23.20
2024-02-27T21:45:39.912Z,21.97
2024-02-27T21:48:09.014Z,31.23
2024-02-27T21:50:37.539Z,21.37
2024-02-27T21:53:05.910Z,23.80
2024-02-27T21:55:33.691Z,23.77
2024-02-27T21:58:01.860Z,20.67
2024-02-27T22:00:29.700Z,21.80
2024-02-27T22:02:59.759Z,24.90
2024-02-27T22:05:27.886Z,33.33
2024-02-27T22:07:55.809Z,28.50
2024-02-27T22:10:23.568Z,27.67
2024-02-27T22:12:51.821Z,27.67
2024-02-27T22:15:20.345Z,19.93
2024-02-27T22:17:48.155Z,18.90
2024-02-27T22:20:17.409Z,21.60
2024-02-27T22:22:45.266Z,19.30
2024-02-27T22:25:13.153Z,20.07
2024-02-27T22:27:41.494Z,21.50
2024-02-27T22:30:15.323Z,24.57
2024-02-27T22:32:45.186Z,32.40
2024-02-27T22:35:12.954Z,22.63
2024-02-27T22:37:42.145Z,20.97
2024-02-27T22:40:10.738Z,20.63
2024-02-27T22:42:39.233Z,20.17
2024-02-27T22:45:08.550Z,19.93
2024-02-27T22:47:36.664Z,27.73
2024-02-27T22:50:04.648Z,22.47
2024-02-27T22:52:32.388Z,23.17
2024-02-27T22:55:01.975Z,24.10
2024-02-27T22:57:30.134Z,22.23
2024-02-27T22:59:58.090Z,25.70
2024-02-27T23:02:26.474Z,31.23
2024-02-27T23:04:55.117Z,26.00
2024-02-27T23:07:26.849Z,27.13
2024-02-27T23:09:54.746Z,21.50
2024-02-27T23:12:23.889Z,21.73
2024-02-27T23:14:52.085Z,23.30
2024-02-27T23:17:20.236Z,27.60
2024-02-27T23:19:48.066Z,21.70
2024-02-27T23:22:16.144Z,21.53
2024-02-27T23:24:44.307Z,18.70
2024-02-27T23:27:12.202Z,18.43
2024-02-27T23:29:41.794Z,23.23
2024-02-27T23:32:09.813Z,29.43
2024-02-27T23:34:37.634Z,19.50
2024-02-27T23:37:05.974Z,27.37
2024-02-27T23:39:33.689Z,35.83
2024-02-27T23:42:01.726Z,23.23
2024-02-27T23:44:30.092Z,20.60
2024-02-27T23:46:59.947Z,18.43
2024-02-27T23:49:27.725Z,30.93
2024-02-27T23:51:55.816Z,37.23
2024-02-27T23:54:23.563Z,26.03
2024-02-27T23:56:51.607Z,33.40
2024-02-27T23:59:19.595Z,33.63
